Time;durP1;ratioP1;P1;durP2;ratioP2;P2;SDS_P1;SDS_P2;PMS_P1;PMS_P2;Temp;Humidity;BMP_temperature;BMP_pressure;BME280_temperature;BME280_humidity;BME280_pressure;Samples;Min_cycle;Max_cycle;Signal;HPM_P1;HPM_P2
2021/07/20 00:00:31;;;;;;;;;;;;;;;28.17;40.32;97492.59;5030290;28;1913;-48
2021/07/20 00:02:56;;;;;;;;;;;;;;;28.23;40.23;97484.06;5024410;28;1834;-52
2021/07/20 00:05:26;;;;;;;;;;;;;;;28.23;40.01;97487.56;5030351;28;1256;-51
2021/07/20 00:07:51;;;;;;;;;;;;;;;28.42;39.88;97483.25;5029192;28;1362;-49
2021/07/20 00:10:20;;;;;;;;;;;;;;;28.30;39.74;97483.41;5029089;28;1554;-51
2021/07/20 00:12:45;;;;;;;;;;;;;;;28.39;39.58;97486.19;5028465;28;1156;-49
2021/07/20 00:15:11;;;;;;;;;;;;;;;28.39;39.83;97480.91;5030857;28;1255;-51
2021/07/20 00:17:36;;;;;;;;;;;;;;;28.42;39.58;97480.59;5017717;28;1433;-50
2021/07/20 00:20:03;;;;;;;;;;;;;;;28.46;39.48;97480.19;5029232;28;2127;-51
2021/07/20 00:22:28;;;;;;;;;;;;;;;28.41;39.63;97471.81;5018101;28;1459;-51
2021/07/20 00:24:54;;;;;;;;;;;;;;;28.37;39.72;97473.09;5026462;28;1648;-51
2021/07/20 00:27:19;;;;;;;;;;;;;;;28.22;39.98;97469.16;5029552;28;1398;-50
2021/07/20 00:29:44;;;;;;;;;;;;;;;28.35;39.64;97467.06;5029237;28;1651;-49
2021/07/20 00:32:09;;;;;;;;;;;;;;;28.30;39.79;97459.53;5029007;28;1161;-51
2021/07/20 00:34:35;;;;;;;;;;;;;;;28.28;39.88;97465.91;5026375;28;1566;-51
2021/07/20 00:37:00;;;;;;;;;;;;;;;28.34;39.94;97457.44;5029934;28;1469;-51
2021/07/20 00:39:25;;;;;;;;;;;;;;;28.28;39.90;97448.22;5026900;28;1659;-50
2021/07/20 00:41:50;;;;;;;;;;;;;;;28.26;39.91;97454.63;5029009;28;1969;-50
2021/07/20 00:44:16;;;;;;;;;;;;;;;28.22;39.95;97464.69;5027876;28;1534;-50
2021/07/20 00:46:41;;;;;;;;;;;;;;;28.32;39.71;97459.41;5029997;28;1374;-51
2021/07/20 00:49:06;;;;;;;;;;;;;;;28.31;39.81;97457.72;5028206;28;1373;-51
2021/07/20 00:51:31;;;;;;;;;;;;;;;28.34;39.60;97446.81;5028262;28;1827;-49
2021/07/20 00:53:56;;;;;;;;;;;;;;;28.29;39.73;97435.78;5029111;28;1118;-50
2021/07/20 00:56:22;;;;;;;;;;;;;;;28.28;39.94;97439.41;5010242;28;1614;-50
2021/07/20 00:58:47;;;;;;;;;;;;;;;28.31;39.75;97442.66;5015503;28;1271;-51
2021/07/20 01:01:12;;;;;;;;;;;;;;;28.41;39.71;97447.94;5012313;28;1967;-51
2021/07/20 01:03:38;;;;;;;;;;;;;;;28.49;39.55;97445.41;5010254;28;1653;-52
2021/07/20 01:06:03;;;;;;;;;;;;;;;28.33;39.73;97443.34;5031831;28;1311;-51
2021/07/20 01:08:29;;;;;;;;;;;;;;;28.14;40.28;97445.97;5034028;28;1221;-52
2021/07/20 01:10:54;;;;;;;;;;;;;;;28.35;39.83;97453.81;5031013;28;1652;-51
2021/07/20 01:13:20;;;;;;;;;;;;;;;28.30;39.89;97458.72;5021458;28;1371;-51
2021/07/20 01:15:45;;;;;;;;;;;;;;;28.26;40.11;97457.28;5033834;28;1288;-51
2021/07/20 01:18:10;;;;;;;;;;;;;;;28.21;40.11;97451.56;5031119;28;1605;-51
2021/07/20 01:20:35;;;;;;;;;;;;;;;28.43;39.67;97453.94;5028210;28;1905;-50
2021/07/20 01:23:05;;;;;;;;;;;;;;;28.38;39.54;97453.53;5031688;28;1658;-51
2021/07/20 01:25:30;;;;;;;;;;;;;;;28.25;39.88;97463.56;5031535;28;1546;-49
2021/07/20 01:27:59;;;;;;;;;;;;;;;28.33;39.74;97466.38;5031363;28;1192;-51
2021/07/20 01:30:24;;;;;;;;;;;;;;;28.36;39.64;97459.00;5033405;28;1254;-50
2021/07/20 01:32:49;;;;;;;;;;;;;;;28.37;39.63;97459.81;5014972;28;1189;-50
2021/07/20 01:35:15;;;;;;;;;;;;;;;28.41;39.52;97450.59;5016561;28;1658;-51
2021/07/20 01:37:40;;;;;;;;;;;;;;;28.17;40.10;97448.34;5033082;28;1337;-51
2021/07/20 01:40:05;;;;;;;;;;;;;;;28.32;39.86;97446.13;5015395;28;1906;-51
2021/07/20 01:42:31;;;;;;;;;;;;;;;28.27;39.71;97441.22;5032061;28;1484;-48
2021/07/20 01:44:56;;;;;;;;;;;;;;;28.34;39.51;97441.53;5015355;28;1300;-51
2021/07/20 01:47:21;;;;;;;;;;;;;;;28.33;39.73;97438.03;5014090;28;1480;-49
2021/07/20 01:49:46;;;;;;;;;;;;;;;28.36;39.48;97434.28;5020522;28;1654;-51
2021/07/20 01:52:12;;;;;;;;;;;;;;;28.33;39.73;97432.72;5031911;28;1302;-51
2021/07/20 01:54:37;;;;;;;;;;;;;;;28.23;39.80;97431.03;5023071;28;1590;-51
2021/07/20 01:57:02;;;;;;;;;;;;;;;28.24;39.88;97430.91;5032311;28;1500;-51
2021/07/20 01:59:27;;;;;;;;;;;;;;;28.46;39.32;97432.44;5021720;28;1149;-50
2021/07/20 02:02:20;;;;;;;;;;;;;;;28.37;39.54;97430.66;5012674;28;1910;-51
2021/07/20 02:08:23;;;;;;;;;;;;;;;28.35;39.66;97433.41;5028758;28;1794;-51
2021/07/20 02:10:13;;;;;;;;;;;;;;;28.27;39.46;97440.38;5030244;28;1590;-51
2021/07/20 02:12:41;;;;;;;;;;;;;;;28.31;39.48;97433.88;5028938;28;1402;-50
2021/07/20 02:15:06;;;;;;;;;;;;;;;28.35;39.52;97445.84;5032090;28;1082;-50
2021/07/20 02:17:32;;;;;;;;;;;;;;;28.45;39.26;97444.03;5028060;28;1679;-50
2021/07/20 02:19:58;;;;;;;;;;;;;;;28.37;39.50;97446.56;5018631;28;1703;-51
2021/07/20 02:22:23;;;;;;;;;;;;;;;28.22;39.93;97442.63;5022301;28;1971;-50
2021/07/20 02:24:49;;;;;;;;;;;;;;;28.25;39.84;97434.38;5029488;28;1589;-52
2021/07/20 02:27:14;;;;;;;;;;;;;;;28.29;39.40;97439.31;5013198;28;1334;-50
2021/07/20 02:29:39;;;;;;;;;;;;;;;28.43;39.44;97440.66;5024255;28;1250;-51
2021/07/20 02:32:05;;;;;;;;;;;;;;;28.34;39.54;97437.06;5013207;28;1228;-51
2021/07/20 02:34:30;;;;;;;;;;;;;;;28.39;39.30;97444.59;5026382;28;1677;-51
2021/07/20 02:36:56;;;;;;;;;;;;;;;28.37;39.43;97451.88;5014070;28;1280;-51
2021/07/20 02:39:21;;;;;;;;;;;;;;;28.34;39.59;97458.28;5013138;28;1657;-50
2021/07/20 02:41:46;;;;;;;;;;;;;;;28.39;39.46;97457.03;5025779;28;1902;-50
2021/07/20 02:44:11;;;;;;;;;;;;;;;28.36;39.46;97458.16;5031774;28;1307;-51
2021/07/20 02:46:36;;;;;;;;;;;;;;;28.31;39.57;97465.69;5019617;28;1361;-48
2021/07/20 02:49:02;;;;;;;;;;;;;;;28.27;39.69;97462.44;5029494;28;1582;-51
2021/07/20 02:51:27;;;;;;;;;;;;;;;28.41;39.36;97455.91;5032083;28;1303;-50
2021/07/20 02:53:53;;;;;;;;;;;;;;;28.47;39.47;97470.41;5013305;28;1186;-50
2021/07/20 02:56:18;;;;;;;;;;;;;;;28.43;39.58;97463.72;5028975;28;1561;-51
2021/07/20 02:58:46;;;;;;;;;;;;;;;28.36;39.64;97463.47;5028720;28;1502;-51
2021/07/20 03:01:11;;;;;;;;;;;;;;;28.38;39.34;97458.84;5013328;28;1969;-51
2021/07/20 03:03:36;;;;;;;;;;;;;;;28.34;39.70;97468.03;5021439;28;1240;-51
2021/07/20 03:06:02;;;;;;;;;;;;;;;28.18;39.79;97471.22;5030825;28;1598;-52
2021/07/20 03:08:28;;;;;;;;;;;;;;;28.33;39.55;97472.50;5018730;28;1513;-50
2021/07/20 03:10:56;;;;;;;;;;;;;;;28.24;39.79;97475.16;5029688;28;1574;-51
2021/07/20 03:13:22;;;;;;;;;;;;;;;28.28;39.70;97479.19;5029083;28;1334;-51
2021/07/20 03:15:47;;;;;;;;;;;;;;;28.38;39.40;97468.63;5019368;28;1355;-50
2021/07/20 03:18:12;;;;;;;;;;;;;;;28.36;39.58;97476.72;5028565;28;1348;-50
2021/07/20 03:20:38;;;;;;;;;;;;;;;28.29;39.50;97470.28;5014444;28;1906;-51
2021/07/20 03:23:03;;;;;;;;;;;;;;;28.27;39.61;97480.16;5012313;28;1318;-49
2021/07/20 03:25:28;;;;;;;;;;;;;;;28.36;39.32;97484.69;5030460;28;1606;-49
2021/07/20 03:27:54;;;;;;;;;;;;;;;28.43;39.44;97488.41;5030869;28;1089;-52
2021/07/20 03:30:19;;;;;;;;;;;;;;;28.37;39.47;97483.69;5014447;28;1205;-51
2021/07/20 03:32:45;;;;;;;;;;;;;;;28.37;39.18;97489.00;5030187;28;1192;-51
2021/07/20 03:35:11;;;;;;;;;;;;;;;28.39;39.54;97499.47;5027464;28;1617;-51
2021/07/20 03:37:36;;;;;;;;;;;;;;;28.34;39.65;97494.56;5019002;28;1386;-50
2021/07/20 03:40:03;;;;;;;;;;;;;;;28.34;39.72;97487.44;5012371;28;1587;-51
2021/07/20 03:42:28;;;;;;;;;;;;;;;28.30;39.42;97488.72;5021180;28;1914;-51
2021/07/20 03:44:54;;;;;;;;;;;;;;;28.39;39.30;97489.69;5029794;28;1298;-51
2021/07/20 03:47:19;;;;;;;;;;;;;;;28.38;39.26;97492.50;5018740;28;1672;-51
2021/07/20 03:49:45;;;;;;;;;;;;;;;28.35;39.35;97494.41;5030526;28;1515;-51
2021/07/20 03:52:10;;;;;;;;;;;;;;;28.56;38.70;97499.59;4950000;28;1228;-51
2021/07/20 03:54:35;;;;;;;;;;;;;;;28.41;39.23;97498.34;5029911;28;1574;-51
2021/07/20 03:57:01;;;;;;;;;;;;;;;28.30;39.48;97499.31;5020067;28;1390;-50
2021/07/20 03:59:26;;;;;;;;;;;;;;;28.33;39.61;97504.34;5029465;28;1299;-49
2021/07/20 04:01:52;;;;;;;;;;;;;;;28.23;39.63;97503.47;5018808;28;1906;-50
2021/07/20 04:04:17;;;;;;;;;;;;;;;28.38;39.50;97495.97;5028592;28;1637;-50
2021/07/20 04:06:42;;;;;;;;;;;;;;;28.23;39.65;97508.78;5019987;28;1365;-51
2021/07/20 04:09:08;;;;;;;;;;;;;;;28.40;39.49;97501.13;5012307;28;1197;-51
2021/07/20 04:11:33;;;;;;;;;;;;;;;28.46;39.07;97497.94;5018449;28;1619;-48
2021/07/20 04:13:58;;;;;;;;;;;;;;;28.47;39.01;97502.25;5030130;28;1153;-51
2021/07/20 04:16:24;;;;;;;;;;;;;;;28.30;39.37;97498.50;5019812;28;1296;-51
2021/07/20 04:18:49;;;;;;;;;;;;;;;28.22;39.86;97496.50;5012933;28;1146;-51
2021/07/20 04:21:14;;;;;;;;;;;;;;;28.28;39.61;97497.75;5027270;28;2020;-50
2021/07/20 04:23:39;;;;;;;;;;;;;;;28.25;39.69;97504.16;5030345;28;1204;-51
2021/07/20 04:26:04;;;;;;;;;;;;;;;28.28;39.44;97505.69;5016234;28;2096;-50
2021/07/20 04:28:30;;;;;;;;;;;;;;;28.35;39.33;97501.53;5012469;28;1428;-51
2021/07/20 04:30:56;;;;;;;;;;;;;;;28.43;39.04;97506.16;5017973;28;1181;-51
2021/07/20 04:33:25;;;;;;;;;;;;;;;28.25;39.69;97506.00;5028070;28;1614;-51
2021/07/20 04:35:56;;;;;;;;;;;;;;;28.37;39.18;97504.91;5018069;28;1465;-51
2021/07/20 04:38:22;;;;;;;;;;;;;;;28.24;39.47;97510.44;5029836;28;1212;-48
2021/07/20 04:40:47;;;;;;;;;;;;;;;28.28;39.30;97509.22;5013185;28;1977;-50
2021/07/20 04:43:13;;;;;;;;;;;;;;;28.30;39.48;97514.41;5009361;28;1511;-50
2021/07/20 04:45:41;;;;;;;;;;;;;;;28.35;39.14;97505.03;5027195;28;1477;-49
2021/07/20 04:48:06;;;;;;;;;;;;;;;28.31;39.55;97502.81;5029225;28;1117;-50
2021/07/20 04:50:31;;;;;;;;;;;;;;;28.22;39.73;97511.56;5026521;28;1601;-51
2021/07/20 04:52:58;;;;;;;;;;;;;;;28.23;39.72;97516.75;5004428;28;1137;-48
2021/07/20 04:55:24;;;;;;;;;;;;;;;28.27;39.59;97526.06;5026890;28;1555;-49
2021/07/20 04:57:49;;;;;;;;;;;;;;;28.38;39.17;97526.97;5028620;28;1452;-52
2021/07/20 05:00:14;;;;;;;;;;;;;;;28.39;39.38;97523.34;5029355;28;1969;-51
2021/07/20 05:02:40;;;;;;;;;;;;;;;28.28;39.41;97535.75;5027005;28;1502;-51
2021/07/20 05:05:06;;;;;;;;;;;;;;;28.27;39.51;97531.38;5027559;28;1679;-51
2021/07/20 05:07:31;;;;;;;;;;;;;;;28.28;39.35;97522.47;5009443;28;1763;-50
2021/07/20 05:09:56;;;;;;;;;;;;;;;28.34;39.07;97527.22;5010571;28;1607;-50
2021/07/20 05:12:22;;;;;;;;;;;;;;;28.24;39.28;97525.53;5018592;28;1251;-51
2021/07/20 05:14:47;;;;;;;;;;;;;;;28.21;39.55;97528.47;5018946;28;1113;-51
2021/07/20 05:17:12;;;;;;;;;;;;;;;28.18;39.71;97541.97;5011095;28;1387;-51
2021/07/20 05:19:37;;;;;;;;;;;;;;;28.35;39.26;97543.97;5017391;28;1802;-51
2021/07/20 05:22:03;;;;;;;;;;;;;;;28.35;39.28;97546.63;5012473;28;1934;-51
2021/07/20 05:24:29;;;;;;;;;;;;;;;28.25;39.44;97548.41;5027606;28;1656;-51
2021/07/20 05:26:55;;;;;;;;;;;;;;;28.24;39.25;97547.59;5027263;28;1425;-51
2021/07/20 05:29:20;;;;;;;;;;;;;;;28.22;39.44;97546.88;5015824;28;1505;-51
2021/07/20 05:31:45;;;;;;;;;;;;;;;28.31;39.42;97543.44;5028116;28;1132;-51
2021/07/20 05:34:12;;;;;;;;;;;;;;;28.33;39.20;97540.63;5012065;28;1552;-50
2021/07/20 05:36:38;;;;;;;;;;;;;;;28.33;39.20;97549.44;5017944;28;1640;-52
2021/07/20 05:39:03;;;;;;;;;;;;;;;28.26;39.43;97545.63;5011856;28;1347;-51
2021/07/20 05:41:28;;;;;;;;;;;;;;;28.29;39.18;97560.44;5012663;28;1910;-51
2021/07/20 05:43:53;;;;;;;;;;;;;;;28.39;39.19;97549.88;5029151;28;1169;-49
2021/07/20 05:46:18;;;;;;;;;;;;;;;28.38;39.08;97553.50;5029122;28;1299;-51
2021/07/20 05:48:44;;;;;;;;;;;;;;;28.34;39.00;97563.53;5017716;28;1577;-51
2021/07/20 05:51:09;;;;;;;;;;;;;;;28.18;39.61;97555.25;5014651;28;1488;-51
2021/07/20 05:53:35;;;;;;;;;;;;;;;28.21;39.65;97552.34;5020452;28;1331;-52
2021/07/20 05:56:02;;;;;;;;;;;;;;;28.32;39.15;97555.72;5014006;28;1788;-51
2021/07/20 05:58:27;;;;;;;;;;;;;;;28.31;39.41;97564.66;5031546;28;1421;-50
2021/07/20 06:00:52;;;;;;;;;;;;;;;28.20;39.65;97559.47;5021409;28;1967;-51
2021/07/20 06:03:18;;;;;;;;;;;;;;;28.19;39.58;97548.97;5022254;28;1589;-51
2021/07/20 06:05:53;;;;;;;;;;;;;;;28.19;39.68;97555.09;5032695;28;1291;-51
2021/07/20 06:08:19;;;;;;;;;;;;;;;28.22;39.54;97551.34;5030502;28;1600;-51
2021/07/20 06:10:45;;;;;;;;;;;;;;;28.26;39.22;97558.88;5032395;28;1614;-50
2021/07/20 06:13:10;;;;;;;;;;;;;;;28.24;39.17;97565.31;5016015;28;1915;-51
2021/07/20 06:15:36;;;;;;;;;;;;;;;28.23;39.45;97567.13;5014883;28;1329;-51
2021/07/20 06:18:01;;;;;;;;;;;;;;;28.22;39.40;97562.81;5014158;28;1165;-50
2021/07/20 06:20:27;;;;;;;;;;;;;;;28.12;39.81;97563.75;5031676;28;1917;-49
2021/07/20 06:22:52;;;;;;;;;;;;;;;28.24;39.32;97570.59;5015474;28;1646;-51
2021/07/20 06:25:18;;;;;;;;;;;;;;;28.24;39.52;97570.59;5029311;28;1549;-51
2021/07/20 06:27:43;;;;;;;;;;;;;;;28.28;39.24;97572.00;5032376;28;1105;-51
2021/07/20 06:30:09;;;;;;;;;;;;;;;28.31;39.31;97583.22;5014574;28;1478;-51
2021/07/20 06:32:34;;;;;;;;;;;;;;;28.19;39.55;97575.47;5013600;28;1150;-51
2021/07/20 06:34:59;;;;;;;;;;;;;;;28.30;38.99;97578.06;5028684;28;1856;-52
2021/07/20 06:37:27;;;;;;;;;;;;;;;28.19;39.49;97575.47;5022021;28;1300;-50
2021/07/20 06:39:53;;;;;;;;;;;;;;;28.25;39.36;97574.94;5027268;28;1585;-52
2021/07/20 06:42:18;;;;;;;;;;;;;;;28.19;39.46;97573.66;5031960;28;2005;-51
2021/07/20 06:44:44;;;;;;;;;;;;;;;28.33;39.19;97567.16;5028102;28;1339;-50
2021/07/20 06:47:13;;;;;;;;;;;;;;;28.25;39.55;97569.63;5028289;28;1632;-51
2021/07/20 06:49:38;;;;;;;;;;;;;;;28.22;39.38;97575.22;5012172;28;1593;-52
2021/07/20 06:52:06;;;;;;;;;;;;;;;28.25;39.16;97574.94;5030862;28;1161;-49
2021/07/20 06:54:31;;;;;;;;;;;;;;;28.27;39.39;97579.13;5014882;28;1581;-51
2021/07/20 06:56:59;;;;;;;;;;;;;;;28.25;39.18;97578.44;5031681;28;1276;-51
2021/07/20 06:59:24;;;;;;;;;;;;;;;28.17;39.15;97572.97;5013382;28;1513;-51
2021/07/20 07:01:49;;;;;;;;;;;;;;;28.30;39.28;97575.41;5029884;28;1960;-49
2021/07/20 07:04:15;;;;;;;;;;;;;;;28.29;39.30;97577.22;5029275;28;1658;-52
2021/07/20 07:06:41;;;;;;;;;;;;;;;28.27;39.10;97575.63;5031965;28;1374;-50
2021/07/20 07:09:07;;;;;;;;;;;;;;;28.26;39.41;97574.78;5016978;28;1517;-51
2021/07/20 07:11:32;;;;;;;;;;;;;;;28.22;39.51;97570.75;5011982;28;1575;-51
2021/07/20 07:13:58;;;;;;;;;;;;;;;28.38;39.26;97570.25;5029765;28;1480;-51
2021/07/20 07:16:24;;;;;;;;;;;;;;;28.36;39.11;97564.25;5030539;28;1299;-50
2021/07/20 07:18:49;;;;;;;;;;;;;;;28.33;39.22;97567.16;5010713;28;1534;-51
2021/07/20 07:21:14;;;;;;;;;;;;;;;28.29;39.19;97566.63;5027100;28;1969;-50
2021/07/20 07:23:40;;;;;;;;;;;;;;;28.33;38.89;97567.16;5020631;28;1483;-51
2021/07/20 07:26:05;;;;;;;;;;;;;;;28.35;39.13;97567.84;5013333;28;2214;-51
2021/07/20 07:28:30;;;;;;;;;;;;;;;28.34;39.33;97560.88;5018097;28;1445;-51
2021/07/20 07:30:55;;;;;;;;;;;;;;;28.24;39.43;97560.00;5012817;28;1197;-52
2021/07/20 07:33:22;;;;;;;;;;;;;;;28.20;39.48;97559.47;5028924;28;1553;-50
2021/07/20 07:35:47;;;;;;;;;;;;;;;28.20;39.49;97555.94;5031006;28;1374;-51
2021/07/20 07:38:13;;;;;;;;;;;;;;;28.18;39.47;97561.38;5029561;28;1346;-50
2021/07/20 07:40:38;;;;;;;;;;;;;;;28.28;39.42;97566.69;5012848;28;1902;-48
2021/07/20 07:43:03;;;;;;;;;;;;;;;28.24;39.51;97566.16;5029034;28;1468;-52
2021/07/20 07:45:29;;;;;;;;;;;;;;;28.26;39.05;97558.88;5030812;28;1288;-51
2021/07/20 07:47:54;;;;;;;;;;;;;;;28.29;39.22;97568.41;5028937;28;1628;-52
2021/07/20 07:50:19;;;;;;;;;;;;;;;28.27;39.45;97571.16;5031218;28;1227;-50
2021/07/20 07:52:44;;;;;;;;;;;;;;;28.31;38.98;97569.13;5030109;28;1413;-51
2021/07/20 07:55:10;;;;;;;;;;;;;;;28.16;39.58;97567.81;5014298;28;1673;-50
2021/07/20 07:57:35;;;;;;;;;;;;;;;28.24;39.33;97574.09;5027856;28;1378;-51
2021/07/20 08:00:00;;;;;;;;;;;;;;;28.27;39.31;97568.50;5030385;28;1236;-51
2021/07/20 08:02:28;;;;;;;;;;;;;;;28.26;39.36;97572.13;5014916;28;2130;-50
2021/07/20 08:04:54;;;;;;;;;;;;;;;28.21;39.61;97570.91;5029682;28;1053;-51
2021/07/20 08:07:19;;;;;;;;;;;;;;;28.32;39.35;97570.78;5017904;28;2079;-51
2021/07/20 08:09:45;;;;;;;;;;;;;;;28.28;39.17;97569.34;5028608;28;1645;-51
2021/07/20 08:12:10;;;;;;;;;;;;;;;28.34;39.07;97569.66;5029099;28;1346;-51
2021/07/20 08:14:35;;;;;;;;;;;;;;;28.30;39.30;97568.28;5015298;28;1562;-50
2021/07/20 08:17:01;;;;;;;;;;;;;;;28.33;39.30;97585.72;5029141;28;1382;-51
2021/07/20 08:19:27;;;;;;;;;;;;;;;28.31;39.00;97572.59;5028288;28;1992;-49
2021/07/20 08:21:57;;;;;;;;;;;;;;;28.17;39.48;97580.09;5029311;28;1922;-51
2021/07/20 08:24:23;;;;;;;;;;;;;;;28.17;39.62;97574.78;5027869;28;2113;-51
2021/07/20 08:26:48;;;;;;;;;;;;;;;28.24;39.47;97568.78;5030004;28;1291;-51
2021/07/20 08:29:18;;;;;;;;;;;;;;;28.26;39.37;97581.91;5012445;28;1619;-51
2021/07/20 08:31:45;;;;;;;;;;;;;;;28.34;39.38;97579.44;5011178;28;1090;-51
2021/07/20 08:34:11;;;;;;;;;;;;;;;28.41;39.23;97575.25;5015539;28;1827;-51
2021/07/20 08:36:40;;;;;;;;;;;;;;;28.23;39.37;97579.53;5020270;28;1296;-50
2021/07/20 08:39:05;;;;;;;;;;;;;;;28.44;39.02;97577.66;5029678;28;1251;-51
2021/07/20 08:41:49;;;;;;;;;;;;;;;28.23;39.40;97579.53;5013214;28;2036;-52
2021/07/20 08:44:21;;;;;;;;;;;;;;;28.47;38.92;97582.69;5029746;28;1197;-51
2021/07/20 08:47:00;;;;;;;;;;;;;;;28.28;39.24;97586.13;5018939;28;1378;-51
2021/07/20 08:49:27;;;;;;;;;;;;;;;28.49;39.14;97588.66;5017418;28;1504;-50
2021/07/20 08:52:11;;;;;;;;;;;;;;;28.20;39.67;97582.44;5010898;28;1268;-51
2021/07/20 08:54:36;;;;;;;;;;;;;;;28.25;39.34;97585.53;5029435;28;1504;-51
2021/07/20 08:57:02;;;;;;;;;;;;;;;28.28;39.38;97585.25;5028978;28;1268;-51
2021/07/20 08:59:29;;;;;;;;;;;;;;;28.52;38.92;97585.75;5014177;28;1775;-51
2021/07/20 09:02:13;;;;;;;;;;;;;;;28.30;39.19;97580.72;5011258;28;1950;-51
2021/07/20 09:04:39;;;;;;;;;;;;;;;28.39;38.87;97587.00;5027484;28;1577;-51
2021/07/20 09:07:09;;;;;;;;;;;;;;;28.25;39.38;97582.88;5029638;28;1326;-50
2021/07/20 09:09:36;;;;;;;;;;;;;;;28.22;39.62;97578.72;5027870;28;1651;-51
2021/07/20 09:12:12;;;;;;;;;;;;;;;28.23;39.50;97572.44;5029286;28;1398;-50
2021/07/20 09:14:56;;;;;;;;;;;;;;;28.20;39.75;97578.00;5016257;28;1436;-51
2021/07/20 09:17:40;;;;;;;;;;;;;;;28.32;39.39;97586.72;5026859;28;1647;-49
2021/07/20 09:20:05;;;;;;;;;;;;;;;28.46;39.17;97580.16;5029973;28;1010;-51
2021/07/20 09:22:35;;;;;;;;;;;;;;;28.39;39.08;97571.09;5028391;28;1969;-51
2021/07/20 09:25:04;;;;;;;;;;;;;;;28.28;39.26;97585.25;5031016;28;1550;-51
2021/07/20 09:27:47;;;;;;;;;;;;;;;28.35;39.17;97576.66;5031927;28;1363;-51
2021/07/20 09:30:17;;;;;;;;;;;;;;;28.24;39.62;97576.75;5032092;28;1189;-51
2021/07/20 09:33:05;;;;;;;;;;;;;;;28.29;39.36;97585.19;5029419;28;1573;-50
2021/07/20 09:35:44;;;;;;;;;;;;;;;28.27;39.57;97580.94;5022559;28;1330;-49
2021/07/20 09:38:21;;;;;;;;;;;;;;;28.34;39.44;97572.31;5017344;28;1205;-50
2021/07/20 09:40:53;;;;;;;;;;;;;;;28.28;39.23;97575.50;5030277;28;1957;-51
2021/07/20 09:43:26;;;;;;;;;;;;;;;28.30;39.23;97578.06;5020213;28;1415;-50
2021/07/20 09:45:55;;;;;;;;;;;;;;;28.47;38.84;97582.69;5032161;28;1413;-50
2021/07/20 09:48:23;;;;;;;;;;;;;;;28.46;39.17;97574.88;5021872;28;1244;-51
2021/07/20 09:50:51;;;;;;;;;;;;;;;28.33;39.41;97568.00;5029819;28;1681;-51
2021/07/20 09:53:35;;;;;;;;;;;;;;;28.39;39.33;97573.75;5032230;28;1164;-51
2021/07/20 09:56:09;;;;;;;;;;;;;;;28.25;39.44;97570.47;5029838;28;1588;-51
2021/07/20 09:58:43;;;;;;;;;;;;;;;28.39;39.06;97571.91;5032424;28;1157;-50
2021/07/20 10:01:10;;;;;;;;;;;;;;;28.52;39.00;97576.97;5019488;28;2036;-50
2021/07/20 10:03:54;;;;;;;;;;;;;;;28.33;39.09;97573.31;5030546;28;1617;-51
2021/07/20 10:06:27;;;;;;;;;;;;;;;28.19;39.63;97567.53;5031744;28;1358;-51
2021/07/20 10:08:56;;;;;;;;;;;;;;;28.34;39.12;97563.53;5020876;28;1072;-51
2021/07/20 10:11:23;;;;;;;;;;;;;;;28.30;39.34;97567.44;5014374;28;1591;-51
2021/07/20 10:13:58;;;;;;;;;;;;;;;28.24;39.59;97565.31;5032204;28;1387;-51
2021/07/20 10:16:31;;;;;;;;;;;;;;;28.31;39.28;97563.81;5011337;28;1280;-52
2021/07/20 10:19:06;;;;;;;;;;;;;;;28.38;39.30;97557.00;5013468;28;1316;-50
2021/07/20 10:21:32;;;;;;;;;;;;;;;28.29;39.51;97558.66;5029655;28;1906;-51
2021/07/20 10:24:11;;;;;;;;;;;;;;;28.38;39.23;97567.59;5031875;28;1148;-51
2021/07/20 10:26:55;;;;;;;;;;;;;;;28.29;39.38;97560.44;5029178;28;1632;-51
2021/07/20 10:29:24;;;;;;;;;;;;;;;28.38;39.21;97564.09;5032427;28;1162;-51
2021/07/20 10:31:52;;;;;;;;;;;;;;;28.33;39.25;97561.84;5028045;28;1319;-52
2021/07/20 10:34:23;;;;;;;;;;;;;;;28.31;39.21;97564.66;5029930;28;1660;-51
2021/07/20 10:36:52;;;;;;;;;;;;;;;28.32;39.30;97555.72;5011441;28;1295;-51
2021/07/20 10:39:18;;;;;;;;;;;;;;;28.35;39.14;97558.09;5012961;28;1118;-51
2021/07/20 10:42:05;;;;;;;;;;;;;;;28.42;39.02;97553.06;5017813;28;1958;-51
2021/07/20 10:44:39;;;;;;;;;;;;;;;28.34;39.07;97556.41;5032179;28;1347;-51
2021/07/20 10:47:05;;;;;;;;;;;;;;;28.37;39.28;97557.97;5014934;28;1347;-48
2021/07/20 10:49:31;;;;;;;;;;;;;;;28.29;39.43;97555.13;5014994;28;1658;-50
2021/07/20 10:52:10;;;;;;;;;;;;;;;28.35;39.37;97559.91;5017747;28;1743;-51
2021/07/20 10:54:39;;;;;;;;;;;;;;;28.24;39.51;97550.22;5019307;28;1628;-51
2021/07/20 10:57:05;;;;;;;;;;;;;;;28.26;39.62;97550.09;5029196;28;1402;-51
2021/07/20 10:59:36;;;;;;;;;;;;;;;28.28;39.47;97554.31;5015633;28;1525;-49
2021/07/20 11:02:06;;;;;;;;;;;;;;;28.30;39.57;97548.88;5030611;28;1984;-50
2021/07/20 11:04:49;;;;;;;;;;;;;;;28.33;39.43;97544.13;5029448;28;1585;-51
2021/07/20 11:07:16;;;;;;;;;;;;;;;28.26;39.44;97555.38;5015194;28;1272;-51
2021/07/20 11:09:41;;;;;;;;;;;;;;;28.31;39.17;97546.09;5016015;28;1656;-51
2021/07/20 11:12:07;;;;;;;;;;;;;;;28.32;39.30;97545.09;5013497;28;1126;-51
2021/07/20 11:14:35;;;;;;;;;;;;;;;28.47;39.13;97553.50;5029210;28;1561;-50
2021/07/20 11:17:01;;;;;;;;;;;;;;;28.32;39.28;97539.81;5019775;28;1430;-51
2021/07/20 11:19:26;;;;;;;;;;;;;;;28.34;39.20;97544.97;5030497;28;1691;-53
2021/07/20 11:21:53;;;;;;;;;;;;;;;28.33;39.47;97538.81;5021872;28;1968;-52
2021/07/20 11:24:18;;;;;;;;;;;;;;;28.28;39.43;97529.56;5028717;28;993;-52
2021/07/20 11:26:43;;;;;;;;;;;;;;;28.34;39.21;97529.88;5013456;28;1638;-50
2021/07/20 11:29:09;;;;;;;;;;;;;;;28.34;39.30;97531.69;5030773;28;1196;-50
2021/07/20 11:31:39;;;;;;;;;;;;;;;28.38;39.08;97527.81;5018890;28;1355;-51
2021/07/20 11:34:05;;;;;;;;;;;;;;;28.41;39.17;97538.13;5027392;28;1617;-51
2021/07/20 11:36:33;;;;;;;;;;;;;;;28.40;39.17;97533.81;5029268;28;1406;-51
2021/07/20 11:38:58;;;;;;;;;;;;;;;28.46;39.20;97533.25;5030011;28;1150;-51
2021/07/20 11:41:26;;;;;;;;;;;;;;;28.41;39.05;97532.81;5029004;28;1902;-51
2021/07/20 11:44:10;;;;;;;;;;;;;;;28.43;39.04;97536.16;5030345;28;995;-50
2021/07/20 11:46:55;;;;;;;;;;;;;;;28.30;39.33;97531.16;5028107;28;1398;-51
2021/07/20 11:49:39;;;;;;;;;;;;;;;28.46;39.00;97535.06;5026828;28;2242;-50
2021/07/20 11:52:05;;;;;;;;;;;;;;;28.34;39.07;97534.34;5028435;28;1358;-50
2021/07/20 11:54:53;;;;;;;;;;;;;;;28.41;39.03;97532.81;5028759;28;1637;-51
2021/07/20 11:57:37;;;;;;;;;;;;;;;28.51;39.01;97531.00;4995368;28;1459;-50
2021/07/20 12:00:02;;;;;;;;;;;;;;;28.27;39.38;97522.59;5029429;28;1138;-50
2021/07/20 12:02:48;;;;;;;;;;;;;;;28.33;39.43;97519.41;5028997;28;1977;-51
2021/07/20 12:05:32;;;;;;;;;;;;;;;28.33;39.38;97522.06;5028431;28;1577;-51
2021/07/20 12:07:57;;;;;;;;;;;;;;;28.24;39.58;97514.91;5030809;28;1587;-51
2021/07/20 12:10:41;;;;;;;;;;;;;;;28.29;39.56;97518.00;5028730;28;1605;-52
2021/07/20 12:13:08;;;;;;;;;;;;;;;28.34;39.35;97516.63;5028406;28;1260;-51
2021/07/20 12:15:33;;;;;;;;;;;;;;;28.33;39.08;97514.13;5030512;28;1379;-51
2021/07/20 12:17:59;;;;;;;;;;;;;;;28.36;39.27;97513.84;5016529;28;1655;-51
2021/07/20 12:20:24;;;;;;;;;;;;;;;28.36;39.29;97513.84;5023736;28;1390;-51
2021/07/20 12:22:50;;;;;;;;;;;;;;;28.32;39.33;97512.44;5029475;28;1910;-51
2021/07/20 12:25:17;;;;;;;;;;;;;;;28.38;39.33;97511.91;5027765;28;1535;-49
2021/07/20 12:27:42;;;;;;;;;;;;;;;28.41;39.10;97508.94;5028605;28;1295;-50
2021/07/20 12:30:08;;;;;;;;;;;;;;;28.48;38.97;97511.88;5023565;28;1650;-51
2021/07/20 12:32:34;;;;;;;;;;;;;;;28.30;39.12;97519.72;5029529;28;1168;-49
2021/07/20 12:35:00;;;;;;;;;;;;;;;28.29;39.37;97512.69;5014615;28;2136;-51
2021/07/20 12:37:25;;;;;;;;;;;;;;;28.34;39.14;97503.38;5011980;28;1546;-50
2021/07/20 12:39:54;;;;;;;;;;;;;;;28.44;38.96;97505.16;5025875;28;1568;-51
2021/07/20 12:42:20;;;;;;;;;;;;;;;28.18;39.68;97511.00;5028076;28;1906;-50
2021/07/20 12:44:45;;;;;;;;;;;;;;;28.30;39.53;97511.75;5017590;28;1301;-51
2021/07/20 12:47:14;;;;;;;;;;;;;;;28.33;39.38;97511.47;5011007;28;1612;-50
2021/07/20 12:49:39;;;;;;;;;;;;;;;28.39;39.18;97513.56;5028477;28;1635;-49
2021/07/20 12:52:05;;;;;;;;;;;;;;;28.31;39.40;97501.00;5028878;28;1338;-51
2021/07/20 12:54:40;;;;;;;;;;;;;;;28.27;39.65;97501.38;5028401;28;1538;-51
2021/07/20 12:57:06;;;;;;;;;;;;;;;28.50;39.02;97497.50;5027401;28;1329;-50
2021/07/20 12:59:34;;;;;;;;;;;;;;;28.42;39.09;97501.81;5028942;28;1173;-51
2021/07/20 13:01:59;;;;;;;;;;;;;;;28.35;39.31;97496.25;5029528;28;1977;-51